Time;durP1;ratioP1;P1;durP2;ratioP2;P2;SDS_P1;SDS_P2;PMS_P1;PMS_P2;Temp;Humidity;BMP_temperature;BMP_pressure;BME280_temperature;BME280_humidity;BME280_pressure;Samples;Min_cycle;Max_cycle;Signal;HPM_P1;HPM_P2
2023/01/16 00:01:04;;;;;;;2.00;1.63;;;16.60;58.00;;;;;;5061076;28;20035;-65
2023/01/16 00:03:30;;;;;;;2.15;1.95;;;16.60;57.80;;;;;;5061145;28;20102;-65
2023/01/16 00:05:56;;;;;;;2.05;1.70;;;16.60;57.70;;;;;;5061149;28;20043;-65
2023/01/16 00:08:22;;;;;;;2.15;1.80;;;16.50;57.70;;;;;;5061004;28;20048;-64
2023/01/16 00:10:48;;;;;;;1.70;1.52;;;16.50;57.80;;;;;;5060858;28;20024;-64
2023/01/16 00:13:14;;;;;;;1.77;1.63;;;16.40;57.90;;;;;;5060757;28;20131;-65
2023/01/16 00:15:50;;;;;;;1.33;1.20;;;16.40;58.00;;;;;;5060680;28;20033;-65
2023/01/16 00:18:17;;;;;;;2.50;1.67;;;16.30;58.10;;;;;;5060767;28;20052;-65
2023/01/16 00:20:43;;;;;;;1.75;1.50;;;16.30;58.10;;;;;;5060613;28;20075;-65
2023/01/16 00:23:10;;;;;;;2.03;1.85;;;16.30;58.20;;;;;;5060585;28;20013;-65
2023/01/16 00:25:41;;;;;;;2.00;1.58;;;16.20;58.30;;;;;;5060636;28;20175;-65
2023/01/16 00:28:10;;;;;;;1.92;1.52;;;16.20;58.40;;;;;;5060650;28;20391;-65
2023/01/16 00:30:37;;;;;;;2.13;1.65;;;16.20;58.40;;;;;;5060365;28;20098;-65
2023/01/16 00:33:03;;;;;;;1.63;1.52;;;16.10;58.40;;;;;;5060472;28;20063;-65
2023/01/16 00:35:29;;;;;;;1.95;1.48;;;16.10;58.40;;;;;;5060362;28;20066;-65
2023/01/16 00:37:55;;;;;;;1.70;1.60;;;16.10;58.50;;;;;;5060390;28;20033;-65
2023/01/16 00:40:21;;;;;;;1.85;1.50;;;16.10;58.50;;;;;;5060368;28;20020;-66
2023/01/16 00:42:47;;;;;;;1.65;1.48;;;16.10;58.50;;;;;;5060348;28;20029;-65
2023/01/16 00:45:12;;;;;;;1.75;1.50;;;16.00;58.50;;;;;;5060401;28;20029;-65
2023/01/16 00:47:38;;;;;;;1.70;1.55;;;16.00;58.50;;;;;;5060440;28;20078;-65
2023/01/16 00:50:04;;;;;;;1.90;1.75;;;16.00;58.50;;;;;;5060335;28;20052;-65
2023/01/16 00:52:30;;;;;;;1.75;1.55;;;16.00;58.60;;;;;;5059551;28;20214;-64
2023/01/16 00:54:56;;;;;;;2.08;1.88;;;16.00;58.60;;;;;;5060050;28;20031;-64
2023/01/16 00:57:22;;;;;;;2.35;1.55;;;16.10;58.60;;;;;;5060033;28;20035;-65
2023/01/16 00:59:48;;;;;;;1.73;1.63;;;16.20;58.40;;;;;;5060039;28;20025;-64
2023/01/16 01:02:14;;;;;;;1.90;1.55;;;16.30;58.30;;;;;;5060031;28;20080;-65
2023/01/16 01:04:40;;;;;;;2.13;1.65;;;16.40;58.10;;;;;;5059960;28;20027;-65
2023/01/16 01:07:05;;;;;;;2.70;2.22;;;16.40;58.00;;;;;;5059938;28;20036;-65
2023/01/16 01:09:31;;;;;;;1.77;1.52;;;16.50;57.90;;;;;;5059994;28;20056;-65
2023/01/16 01:11:58;;;;;;;2.03;1.70;;;16.50;57.70;;;;;;5059995;28;20028;-65
2023/01/16 01:14:24;;;;;;;1.80;1.40;;;16.50;57.50;;;;;;5059879;28;20024;-65
2023/01/16 01:16:50;;;;;;;1.75;1.55;;;16.60;57.50;;;;;;5059864;28;20033;-65
2023/01/16 01:19:16;;;;;;;1.85;1.52;;;16.60;57.50;;;;;;5059784;28;20349;-65
2023/01/16 01:21:41;;;;;;;2.13;1.60;;;16.60;57.50;;;;;;5059847;28;20013;-65
2023/01/16 01:24:08;;;;;;;1.85;1.75;;;16.50;57.50;;;;;;5059839;28;20029;-65
2023/01/16 01:26:34;;;;;;;2.28;2.08;;;16.40;57.60;;;;;;5059814;28;20213;-65
2023/01/16 01:29:00;;;;;;;2.05;1.80;;;16.40;57.70;;;;;;5059791;28;20021;-65
2023/01/16 01:31:25;;;;;;;1.98;1.60;;;16.30;57.70;;;;;;5059628;28;20088;-65
2023/01/16 01:33:51;;;;;;;1.67;1.52;;;16.30;57.90;;;;;;5059701;28;20029;-65
2023/01/16 01:36:17;;;;;;;2.03;1.77;;;16.20;58.60;;;;;;5059618;28;20229;-65
2023/01/16 01:38:44;;;;;;;1.90;1.80;;;16.20;58.10;;;;;;5059629;28;20070;-65
2023/01/16 01:41:13;;;;;;;2.08;1.52;;;16.20;58.30;;;;;;5059613;28;20021;-66
2023/01/16 01:43:44;;;;;;;1.65;1.50;;;16.10;58.30;;;;;;5059619;28;20048;-66
2023/01/16 01:46:36;;;;;;;1.67;1.52;;;16.10;58.40;;;;;;5059551;28;20037;-65
2023/01/16 01:49:27;;;;;;;1.88;1.65;;;16.10;58.50;;;;;;5059563;28;20344;-65
2023/01/16 01:51:55;;;;;;;1.77;1.40;;;16.10;58.50;;;;;;5058982;28;20370;-65
2023/01/16 01:54:39;;;;;;;1.85;1.73;;;16.10;58.40;;;;;;5059480;28;20021;-64
2023/01/16 01:57:19;;;;;;;1.70;1.40;;;16.10;58.50;;;;;;5059550;28;20029;-65
2023/01/16 01:59:54;;;;;;;1.77;1.40;;;16.10;58.50;;;;;;5059548;28;20337;-64
2023/01/16 02:02:24;;;;;;;1.98;1.63;;;16.10;58.50;;;;;;5059454;28;20309;-64
2023/01/16 02:04:56;;;;;;;1.63;1.52;;;16.10;58.50;;;;;;5062277;28;20341;-65
2023/01/16 02:07:26;;;;;;;2.10;1.70;;;16.10;58.60;;;;;;5063207;28;20040;-64
2023/01/16 02:10:06;;;;;;;1.80;1.60;;;16.00;58.50;;;;;;5063099;28;20057;-65
2023/01/16 02:12:32;;;;;;;1.80;1.45;;;16.00;58.50;;;;;;5063081;28;20408;-64
2023/01/16 02:14:58;;;;;;;2.08;1.70;;;16.10;58.60;;;;;;5062935;28;20033;-65
2023/01/16 02:20:20;;;;;;;1.75;1.55;;;16.20;58.60;;;;;;5062918;28;20114;-65
2023/01/16 02:23:07;;;;;;;2.00;1.48;;;16.30;58.50;;;;;;5062930;28;20024;-65
2023/01/16 02:25:55;;;;;;;1.60;1.50;;;16.30;58.30;;;;;;5061650;28;20062;-65
2023/01/16 02:28:57;;;;;;;1.90;1.63;;;16.50;58.20;;;;;;5062948;28;20016;-64
2023/01/16 02:31:48;;;;;;;2.95;1.75;;;16.50;57.90;;;;;;5062751;28;20063;-64
2023/01/16 02:34:20;;;;;;;2.15;1.70;;;16.50;57.80;;;;;;5062517;28;20033;-64
2023/01/16 02:37:11;;;;;;;1.45;1.35;;;16.60;57.60;;;;;;5062680;28;20383;-65
2023/01/16 02:40:04;;;;;;;1.88;1.77;;;16.60;57.60;;;;;;5062653;28;20242;-65
2023/01/16 02:42:43;;;;;;;2.40;1.90;;;16.60;57.60;;;;;;5062681;28;20025;-65
2023/01/16 02:45:36;;;;;;;1.73;1.63;;;16.70;57.40;;;;;;5062677;28;20025;-64
2023/01/16 02:48:24;;;;;;;2.08;1.77;;;16.60;57.40;;;;;;5062536;28;20028;-65
2023/01/16 02:51:17;;;;;;;2.25;1.85;;;16.60;57.40;;;;;;5062543;28;20048;-64
2023/01/16 02:54:10;;;;;;;2.88;2.10;;;16.50;57.50;;;;;;5062414;28;20095;-64
2023/01/16 02:56:45;;;;;;;2.17;1.85;;;16.40;57.60;;;;;;5062442;28;20285;-64
2023/01/16 02:59:13;;;;;;;1.45;1.33;;;16.40;57.80;;;;;;5062342;28;20048;-65
2023/01/16 03:01:40;;;;;;;1.70;1.60;;;16.30;57.90;;;;;;5062351;28;20025;-65
2023/01/16 03:04:44;;;;;;;1.40;1.30;;;16.20;58.00;;;;;;5062335;28;20040;-64
2023/01/16 03:07:48;;;;;;;1.73;1.40;;;16.20;58.10;;;;;;5062344;28;20048;-64
2023/01/16 03:10:34;;;;;;;2.13;1.83;;;16.10;58.20;;;;;;5000753;28;20097;-65
2023/01/16 03:13:09;;;;;;;3.05;1.80;;;16.10;58.20;;;;;;5059340;28;20060;-65
2023/01/16 03:15:47;;;;;;;2.00;1.70;;;16.10;58.30;;;;;;5061422;28;20029;-64
2023/01/16 03:18:25;;;;;;;2.03;1.73;;;16.10;58.50;;;;;;5062171;28;20088;-65
2023/01/16 03:21:06;;;;;;;2.47;1.95;;;16.10;58.50;;;;;;5062160;28;20025;-64
2023/01/16 03:23:53;;;;;;;2.25;1.88;;;16.10;58.50;;;;;;5062188;28;20021;-65
2023/01/16 03:26:31;;;;;;;2.35;1.90;;;16.10;58.50;;;;;;5062413;28;20403;-65
2023/01/16 03:29:29;;;;;;;2.08;1.55;;;16.10;58.50;;;;;;5062054;28;20043;-65
2023/01/16 03:32:26;;;;;;;1.75;1.60;;;16.10;58.40;;;;;;5061839;28;20244;-65
2023/01/16 03:35:09;;;;;;;1.55;1.25;;;16.10;58.60;;;;;;5030850;28;20271;-65
2023/01/16 03:37:51;;;;;;;1.80;1.70;;;16.00;58.50;;;;;;5061751;28;20045;-65
2023/01/16 03:40:27;;;;;;;1.95;1.58;;;16.10;58.50;;;;;;5061685;28;20052;-64
2023/01/16 03:43:01;;;;;;;3.28;1.73;;;16.10;58.50;;;;;;5061653;28;20021;-65
2023/01/16 03:46:02;;;;;;;2.28;1.85;;;16.10;58.60;;;;;;5061224;28;20031;-65
2023/01/16 03:49:03;;;;;;;2.17;1.70;;;16.20;58.50;;;;;;5028902;28;20033;-65
2023/01/16 03:51:34;;;;;;;1.77;1.63;;;16.30;58.50;;;;;;5058369;28;20033;-65
2023/01/16 03:54:05;;;;;;;1.95;1.60;;;16.40;58.30;;;;;;5061369;28;20029;-64
2023/01/16 03:56:45;;;;;;;1.65;1.40;;;16.50;58.10;;;;;;5061320;28;20360;-64
2023/01/16 03:59:11;;;;;;;2.22;1.85;;;16.50;57.90;;;;;;5061278;28;20095;-64
2023/01/16 04:02:02;;;;;;;2.83;1.70;;;16.50;57.70;;;;;;5061203;28;20033;-65
2023/01/16 04:04:48;;;;;;;1.77;1.65;;;16.60;57.60;;;;;;5061204;28;20024;-64
2023/01/16 04:07:37;;;;;;;2.13;1.50;;;16.50;57.60;;;;;;5061184;28;20066;-64
2023/01/16 04:10:12;;;;;;;1.70;1.60;;;16.50;57.60;;;;;;5061063;28;20025;-64
2023/01/16 04:12:50;;;;;;;2.10;1.90;;;16.40;57.70;;;;;;5061098;28;20078;-65
2023/01/16 04:15:18;;;;;;;1.80;1.65;;;16.30;57.80;;;;;;5061025;28;20029;-65
2023/01/16 04:17:44;;;;;;;2.22;1.55;;;16.30;57.90;;;;;;5060836;28;20028;-65
2023/01/16 04:20:10;;;;;;;2.78;1.63;;;16.20;58.00;;;;;;5060887;28;20066;-65
2023/01/16 04:22:36;;;;;;;2.00;1.80;;;16.20;58.10;;;;;;5060827;28;20025;-66
2023/01/16 04:25:06;;;;;;;1.55;1.45;;;16.20;58.20;;;;;;5060738;28;20024;-67
2023/01/16 04:27:32;;;;;;;1.40;1.10;;;16.10;58.20;;;;;;5059878;28;20218;-65
2023/01/16 04:29:58;;;;;;;1.90;1.48;;;16.10;58.20;;;;;;5060658;28;20066;-64
2023/01/16 04:32:24;;;;;;;1.98;1.60;;;16.10;58.40;;;;;;5060827;28;20032;-65
2023/01/16 04:34:50;;;;;;;1.05;1.02;;;16.10;58.40;;;;;;5060593;28;20078;-64
2023/01/16 04:37:17;;;;;;;2.03;1.52;;;16.10;58.40;;;;;;5060510;28;20321;-65
2023/01/16 04:39:43;;;;;;;1.50;1.38;;;16.00;58.40;;;;;;5060482;28;20025;-65
2023/01/16 04:42:10;;;;;;;2.20;1.88;;;16.00;58.40;;;;;;5060375;28;20071;-65
2023/01/16 04:44:35;;;;;;;1.67;1.58;;;16.00;58.50;;;;;;5060272;28;20028;-65
2023/01/16 04:47:01;;;;;;;1.60;1.48;;;16.00;58.60;;;;;;5060336;28;20076;-64
2023/01/16 04:49:27;;;;;;;1.77;1.63;;;16.00;58.50;;;;;;5060314;28;20215;-64
2023/01/16 04:51:53;;;;;;;1.70;1.58;;;16.00;58.60;;;;;;5060222;28;20194;-64
2023/01/16 04:54:20;;;;;;;1.77;1.67;;;16.00;58.60;;;;;;5060146;28;20039;-64
2023/01/16 04:56:46;;;;;;;1.50;1.40;;;16.00;58.60;;;;;;5060206;28;20052;-65
2023/01/16 04:59:15;;;;;;;1.60;1.40;;;16.00;58.60;;;;;;5060151;28;20027;-65
2023/01/16 05:01:42;;;;;;;1.60;1.45;;;16.10;58.70;;;;;;5060149;28;20023;-65
2023/01/16 05:04:09;;;;;;;1.70;1.50;;;16.10;58.70;;;;;;5060047;28;20052;-64
2023/01/16 05:06:36;;;;;;;2.00;1.63;;;16.10;58.60;;;;;;5060000;28;20340;-65
2023/01/16 05:09:03;;;;;;;1.80;1.55;;;16.20;58.50;;;;;;5075439;28;20074;-65
2023/01/16 05:11:29;;;;;;;1.42;1.27;;;16.40;58.40;;;;;;5059968;28;20024;-65
2023/01/16 05:13:55;;;;;;;2.30;1.75;;;16.40;58.20;;;;;;5059958;28;20029;-66
2023/01/16 05:16:21;;;;;;;1.65;1.45;;;16.50;58.00;;;;;;5059932;28;20039;-64
2023/01/16 05:18:47;;;;;;;1.63;1.50;;;16.50;57.80;;;;;;5059928;28;20044;-64
2023/01/16 05:21:13;;;;;;;1.40;1.20;;;16.50;57.70;;;;;;5059899;28;20071;-65
2023/01/16 05:23:39;;;;;;;1.50;1.40;;;16.50;57.70;;;;;;5059821;28;20539;-65
2023/01/16 05:26:05;;;;;;;1.67;1.40;;;16.50;57.80;;;;;;5059727;28;20028;-64
2023/01/16 05:28:32;;;;;;;1.58;1.40;;;16.40;57.80;;;;;;5059836;28;20186;-64
2023/01/16 05:30:58;;;;;;;1.85;1.63;;;16.30;57.90;;;;;;5059664;28;20653;-64
2023/01/16 05:33:24;;;;;;;2.15;1.95;;;16.30;58.00;;;;;;5059773;28;20025;-65
2023/01/16 05:35:53;;;;;;;2.08;1.65;;;16.20;58.00;;;;;;5059649;28;20036;-64
2023/01/16 05:38:20;;;;;;;2.53;1.55;;;16.20;58.10;;;;;;5060295;28;20256;-65
2023/01/16 05:40:46;;;;;;;3.10;1.73;;;16.20;58.20;;;;;;5062486;28;20024;-64
2023/01/16 05:43:12;;;;;;;1.90;1.65;;;16.10;58.30;;;;;;5063713;28;20353;-64
2023/01/16 05:45:38;;;;;;;2.30;2.10;;;16.10;58.40;;;;;;5063604;28;20029;-64
2023/01/16 05:48:04;;;;;;;2.05;1.60;;;16.10;58.40;;;;;;5063547;28;20029;-64
2023/01/16 05:50:30;;;;;;;1.60;1.20;;;16.10;58.50;;;;;;5063551;28;20336;-65
2023/01/16 05:52:56;;;;;;;1.60;1.50;;;16.00;58.50;;;;;;5063512;28;20048;-64
2023/01/16 05:55:22;;;;;;;2.10;1.90;;;16.00;58.50;;;;;;5063310;28;20100;-64
2023/01/16 05:57:48;;;;;;;1.38;1.27;;;16.00;58.50;;;;;;5063447;28;20306;-64
2023/01/16 06:00:14;;;;;;;1.75;1.50;;;16.00;58.60;;;;;;5063406;28;20220;-65
2023/01/16 06:02:40;;;;;;;2.05;1.50;;;16.00;58.60;;;;;;5063308;28;20024;-65
2023/01/16 06:05:06;;;;;;;2.08;1.65;;;16.00;58.60;;;;;;5063419;28;20021;-65
2023/01/16 06:07:32;;;;;;;2.05;1.60;;;16.00;58.60;;;;;;5062013;28;20396;-64
2023/01/16 06:09:58;;;;;;;1.95;1.65;;;16.00;58.80;;;;;;5063292;28;20021;-65
2023/01/16 06:12:24;;;;;;;2.55;1.67;;;16.00;58.70;;;;;;5063154;28;20256;-64
2023/01/16 06:14:50;;;;;;;2.08;1.67;;;16.00;58.60;;;;;;5063100;28;20063;-64
2023/01/16 06:17:18;;;;;;;1.92;1.52;;;16.10;58.80;;;;;;5063108;28;20017;-64
2023/01/16 06:19:44;;;;;;;2.10;1.60;;;16.20;58.90;;;;;;5063058;28;20083;-65
2023/01/16 06:22:12;;;;;;;1.90;1.70;;;16.30;58.70;;;;;;5063026;28;20051;-65
2023/01/16 06:24:38;;;;;;;1.65;1.55;;;16.30;58.50;;;;;;5062963;28;20090;-64
2023/01/16 06:27:04;;;;;;;2.00;1.70;;;16.40;58.40;;;;;;5062880;28;20084;-64
2023/01/16 06:29:30;;;;;;;2.53;1.90;;;16.50;58.20;;;;;;5062826;28;20029;-64
2023/01/16 06:31:55;;;;;;;2.92;1.95;;;16.50;58.00;;;;;;5062672;28;20094;-64
2023/01/16 06:34:23;;;;;;;2.10;1.80;;;16.50;57.90;;;;;;5062753;28;20056;-65
2023/01/16 06:36:49;;;;;;;2.25;1.92;;;16.50;57.80;;;;;;5062702;28;20118;-64
2023/01/16 06:39:16;;;;;;;2.08;1.48;;;16.50;57.80;;;;;;5062666;28;20148;-64
2023/01/16 06:41:42;;;;;;;1.85;1.75;;;16.50;57.80;;;;;;5062523;28;20336;-64
2023/01/16 06:44:08;;;;;;;2.15;1.90;;;16.40;57.90;;;;;;5062577;28;20491;-64
2023/01/16 06:46:35;;;;;;;2.35;1.85;;;16.40;58.00;;;;;;5062518;28;20115;-64
2023/01/16 06:49:01;;;;;;;2.28;1.90;;;16.30;58.00;;;;;;5062473;28;20020;-64
2023/01/16 06:51:27;;;;;;;2.25;1.88;;;16.30;58.10;;;;;;5061519;28;20028;-64
2023/01/16 06:53:53;;;;;;;2.35;1.85;;;16.20;58.10;;;;;;5062575;28;20048;-64
2023/01/16 06:56:19;;;;;;;1.70;1.48;;;16.20;58.20;;;;;;5062537;28;20052;-64
2023/01/16 06:58:44;;;;;;;1.63;1.50;;;16.20;58.30;;;;;;5062512;28;20231;-64
2023/01/16 07:01:10;;;;;;;1.48;1.38;;;16.10;58.30;;;;;;5062448;28;20050;-64
2023/01/16 07:03:36;;;;;;;2.70;1.95;;;16.10;58.30;;;;;;5062376;28;20092;-64
2023/01/16 07:06:03;;;;;;;2.20;1.92;;;16.10;58.40;;;;;;5062376;28;20197;-64
2023/01/16 07:08:28;;;;;;;2.08;1.70;;;16.10;58.40;;;;;;5062380;28;20056;-65
2023/01/16 07:10:58;;;;;;;2.50;2.05;;;16.00;58.50;;;;;;5062235;28;20079;-65
2023/01/16 07:13:27;;;;;;;1.80;1.60;;;16.00;58.50;;;;;;5062235;28;20096;-64
2023/01/16 07:24:17;;;;;;;1.45;1.23;;;16.00;58.60;;;;;;5061912;28;20216;-64
2023/01/16 07:26:47;;;;;;;1.50;1.38;;;16.00;58.60;;;;;;5061872;28;20021;-64
2023/01/16 07:29:13;;;;;;;1.38;1.23;;;16.10;58.70;;;;;;5061836;28;20031;-65
2023/01/16 07:31:39;;;;;;;2.00;1.80;;;16.20;58.70;;;;;;5061685;28;20060;-65
2023/01/16 07:34:06;;;;;;;1.58;1.48;;;16.30;58.50;;;;;;5061751;28;20043;-65
2023/01/16 07:36:31;;;;;;;2.20;1.83;;;16.40;58.40;;;;;;5061649;28;20274;-64
2023/01/16 07:38:57;;;;;;;1.83;1.60;;;16.50;58.20;;;;;;5061661;28;20251;-65
2023/01/16 07:41:23;;;;;;;2.00;1.70;;;16.50;58.00;;;;;;5061512;28;20051;-65
2023/01/16 07:43:50;;;;;;;1.67;1.52;;;16.60;57.90;;;;;;5061572;28;20013;-65
2023/01/16 07:46:16;;;;;;;2.33;1.83;;;16.60;57.80;;;;;;5061545;28;20024;-65
2023/01/16 07:48:41;;;;;;;2.47;2.00;;;16.60;57.70;;;;;;5061500;28;20078;-65
2023/01/16 07:51:07;;;;;;;2.08;1.67;;;16.50;58.30;;;;;;5061421;28;20035;-65
2023/01/16 07:53:33;;;;;;;1.98;1.42;;;16.50;57.80;;;;;;5061408;28;20025;-66
2023/01/16 07:56:01;;;;;;;1.65;1.42;;;16.40;57.90;;;;;;5061367;28;20028;-66
2023/01/16 07:58:28;;;;;;;1.77;1.50;;;16.40;58.00;;;;;;5061310;28;20044;-66
2023/01/16 08:00:56;;;;;;;1.65;1.42;;;16.30;58.10;;;;;;5061267;28;20174;-65
2023/01/16 08:03:22;;;;;;;1.98;1.75;;;16.30;58.10;;;;;;5061185;28;20048;-65
2023/01/16 08:05:51;;;;;;;2.38;1.77;;;16.30;58.10;;;;;;5061208;28;20044;-65
2023/01/16 08:08:18;;;;;;;2.33;1.70;;;16.20;58.10;;;;;;5061136;28;20025;-65
2023/01/16 08:10:44;;;;;;;2.10;1.90;;;16.20;58.20;;;;;;5061154;28;20309;-65
2023/01/16 08:13:10;;;;;;;2.00;1.50;;;16.20;58.30;;;;;;5061273;28;20023;-65
2023/01/16 08:15:35;;;;;;;1.50;1.35;;;16.10;58.30;;;;;;5061027;28;20060;-65
2023/01/16 08:18:01;;;;;;;2.42;1.83;;;16.10;58.30;;;;;;5060966;28;20024;-65
2023/01/16 08:20:27;;;;;;;1.75;1.50;;;16.10;58.30;;;;;;5060938;28;20427;-65
2023/01/16 08:22:57;;;;;;;2.15;1.75;;;16.10;58.40;;;;;;5060878;28;20230;-66
2023/01/16 08:25:24;;;;;;;1.80;1.48;;;16.10;58.30;;;;;;5060887;28;20028;-64
2023/01/16 08:27:50;;;;;;;1.65;1.25;;;16.10;58.40;;;;;;5060659;28;20044;-65
2023/01/16 08:30:16;;;;;;;2.10;1.90;;;16.00;58.40;;;;;;5060516;28;20090;-65
2023/01/16 08:32:42;;;;;;;2.40;1.65;;;16.00;58.50;;;;;;5060683;28;20040;-65
2023/01/16 08:35:09;;;;;;;1.30;1.20;;;16.00;58.50;;;;;;5060515;28;20420;-64
2023/01/16 08:37:35;;;;;;;1.60;1.30;;;16.00;58.50;;;;;;5060592;28;20013;-64
2023/01/16 08:40:03;;;;;;;1.70;1.40;;;16.10;58.40;;;;;;5060486;28;20028;-65
2023/01/16 08:53:32;;;;;;;1.75;1.52;;;16.50;57.60;;;;;;5060283;28;20052;-64
2023/01/16 08:55:58;;;;;;;2.25;1.42;;;16.60;57.50;;;;;;5058854;28;20580;-63
2023/01/16 08:58:24;;;;;;;1.90;1.77;;;16.60;57.50;;;;;;5058913;28;20014;-64
2023/01/16 09:00:50;;;;;;;2.05;1.55;;;16.60;57.40;;;;;;5060156;28;20336;-64
2023/01/16 09:03:19;;;;;;;1.85;1.70;;;16.60;57.40;;;;;;5060097;28;20021;-63
2023/01/16 09:05:46;;;;;;;1.45;1.35;;;16.50;57.40;;;;;;5060107;28;20040;-64
2023/01/16 09:08:12;;;;;;;1.88;1.35;;;16.50;57.60;;;;;;5060015;28;20224;-64
2023/01/16 09:10:38;;;;;;;3.22;1.42;;;16.40;57.60;;;;;;5060065;28;20031;-64
2023/01/16 09:15:48;;;;;;;2.10;1.70;;;16.30;57.80;;;;;;5059940;28;20098;-64
2023/01/16 09:18:14;;;;;;;1.73;1.50;;;16.30;57.80;;;;;;5060069;28;20040;-65
2023/01/16 09:20:40;;;;;;;1.40;1.30;;;16.20;57.90;;;;;;5059993;28;20025;-65
2023/01/16 09:23:06;;;;;;;2.00;1.50;;;16.20;58.00;;;;;;5059943;28;20084;-65
2023/01/16 09:25:32;;;;;;;1.60;1.38;;;16.20;58.10;;;;;;5059931;28;20045;-64
2023/01/16 09:27:59;;;;;;;1.50;1.40;;;16.20;58.10;;;;;;5059949;28;20057;-64
2023/01/16 09:30:27;;;;;;;1.67;1.50;;;16.20;58.20;;;;;;5059710;28;20392;-64
2023/01/16 09:32:53;;;;;;;1.52;1.42;;;16.20;58.20;;;;;;5059970;28;20040;-65
2023/01/16 09:35:19;;;;;;;1.40;1.30;;;16.30;58.20;;;;;;5059759;28;20088;-64
2023/01/16 09:37:46;;;;;;;1.50;1.40;;;16.30;58.10;;;;;;5059872;28;20051;-64
2023/01/16 09:40:22;;;;;;;1.95;1.45;;;16.30;58.00;;;;;;5059811;28;20227;-64
2023/01/16 09:46:01;;;;;;;1.95;1.42;;;16.30;57.80;;;;;;5059982;28;20040;-65
2023/01/16 09:48:31;;;;;;;1.65;1.55;;;16.30;57.90;;;;;;5060167;28;20313;-65
2023/01/16 09:51:07;;;;;;;1.80;1.60;;;16.20;57.90;;;;;;5059824;28;20096;-65
2023/01/16 09:59:37;;;;;;;2.20;1.50;;;16.30;58.00;;;;;;5059683;28;20020;-65
2023/01/16 10:02:14;;;;;;;1.88;1.65;;;16.30;57.80;;;;;;5059717;28;20343;-64
2023/01/16 10:04:41;;;;;;;1.83;1.60;;;16.40;57.80;;;;;;5059739;28;20029;-66
2023/01/16 10:07:34;;;;;;;1.67;1.55;;;16.50;57.60;;;;;;5059584;28;20059;-65
2023/01/16 10:10:03;;;;;;;1.60;1.50;;;16.60;57.40;;;;;;5059569;28;20372;-65
2023/01/16 10:12:35;;;;;;;1.60;1.50;;;16.70;57.10;;;;;;5059584;28;20032;-65
2023/01/16 10:15:19;;;;;;;2.10;1.70;;;16.80;56.80;;;;;;5059557;28;20079;-65
2023/01/16 10:18:14;;;;;;;2.15;1.75;;;16.80;56.70;;;;;;5059534;28;20056;-65
2023/01/16 10:20:47;;;;;;;1.88;1.40;;;16.80;56.60;;;;;;5059513;28;20245;-64
2023/01/16 10:23:52;;;;;;;1.52;1.42;;;16.80;56.70;;;;;;5059551;28;20024;-65
2023/01/16 10:26:38;;;;;;;1.70;1.38;;;16.70;56.80;;;;;;5061412;28;20028;-64
2023/01/16 10:29:33;;;;;;;2.30;1.60;;;16.60;57.00;;;;;;5062998;28;20013;-65
2023/01/16 10:32:12;;;;;;;1.52;1.42;;;16.50;57.10;;;;;;5049536;28;20048;-64
2023/01/16 10:34:46;;;;;;;;;;;16.50;57.30;;;;;;5063547;28;20036;-64
2023/01/16 10:37:12;;;;;;;2.40;1.58;;;16.40;57.40;;;;;;5078435;28;19908;-65
2023/01/16 10:39:38;;;;;;;2.20;1.70;;;16.40;57.50;;;;;;5062897;28;20009;-66
2023/01/16 10:51:00;;;;;;;1.80;1.40;;;16.20;57.80;;;;;;5062724;28;20051;-64
2023/01/16 10:53:26;;;;;;;2.40;1.73;;;16.20;57.90;;;;;;5062587;28;20048;-64
2023/01/16 10:55:54;;;;;;;1.80;1.63;;;16.10;58.00;;;;;;5062459;28;20043;-64
2023/01/16 10:58:29;;;;;;;2.15;1.55;;;16.10;58.10;;;;;;5062615;28;20035;-65
2023/01/16 11:01:11;;;;;;;1.98;1.75;;;16.10;58.10;;;;;;5062599;28;20071;-65
2023/01/16 11:03:45;;;;;;;1.45;1.33;;;16.10;58.10;;;;;;5062459;28;20017;-64
2023/01/16 11:06:13;;;;;;;1.50;1.40;;;16.10;58.20;;;;;;5062367;28;20070;-67
2023/01/16 11:08:44;;;;;;;1.70;1.50;;;16.10;58.00;;;;;;5062278;28;20044;-66
2023/01/16 11:18:27;;;;;;;1.95;1.73;;;16.10;58.10;;;;;;5060894;28;20029;-65
2023/01/16 11:20:03;;;;;;;2.30;1.80;;;16.40;58.00;;;;;;5062037;28;20039;-65
2023/01/16 11:22:29;;;;;;;2.03;1.80;;;16.50;57.70;;;;;;5062054;28;20020;-65
2023/01/16 11:24:58;;;;;;;1.83;1.60;;;16.60;57.60;;;;;;5061935;28;20083;-65
2023/01/16 11:27:31;;;;;;;1.83;1.60;;;16.60;57.40;;;;;;5061872;28;20024;-65
2023/01/16 11:29:57;;;;;;;1.88;1.55;;;16.70;57.30;;;;;;5061929;28;20216;-65
2023/01/16 11:32:27;;;;;;;1.70;1.55;;;16.70;57.20;;;;;;5061666;28;20049;-65
2023/01/16 11:34:57;;;;;;;1.92;1.45;;;16.70;57.10;;;;;;5061746;28;20038;-65
2023/01/16 11:37:28;;;;;;;2.97;2.13;;;16.60;57.20;;;;;;5061235;28;20048;-65
2023/01/16 11:39:58;;;;;;;1.70;1.58;;;16.60;57.30;;;;;;5061712;28;20012;-65
2023/01/16 11:48:22;;;;;;;2.13;1.73;;;16.40;57.60;;;;;;5061548;28;20312;-66
2023/01/16 11:50:52;;;;;;;1.55;1.40;;;16.40;57.80;;;;;;5061516;28;20308;-65
2023/01/16 11:53:18;;;;;;;1.95;1.40;;;16.30;57.80;;;;;;5061596;28;20025;-65
2023/01/16 11:56:21;;;;;;;2.05;1.67;;;16.20;57.80;;;;;;5061506;28;20044;-66
2023/01/16 11:59:06;;;;;;;2.58;1.92;;;16.20;57.90;;;;;;5061430;28;20020;-64
2023/01/16 12:04:33;;;;;;;1.88;1.52;;;16.10;58.00;;;;;;5061182;28;20024;-64
2023/01/16 12:07:22;;;;;;;1.67;1.38;;;16.10;58.10;;;;;;5061238;28;20056;-65
2023/01/16 12:09:55;;;;;;;2.25;2.05;;;16.10;58.20;;;;;;5061189;28;20475;-65
2023/01/16 12:15:31;;;;;;;2.05;1.67;;;16.10;58.20;;;;;;5060879;28;20032;-65
2023/01/16 12:18:21;;;;;;;2.00;1.73;;;16.00;58.20;;;;;;5060964;28;20029;-65
2023/01/16 12:20:49;;;;;;;2.00;1.73;;;16.00;58.20;;;;;;5060860;28;20021;-65
2023/01/16 12:23:37;;;;;;;1.70;1.45;;;16.10;58.30;;;;;;5060810;28;20027;-66
2023/01/16 12:26:16;;;;;;;1.70;1.45;;;16.10;58.40;;;;;;5060821;28;20033;-66
2023/01/16 12:28:46;;;;;;;;;;;16.20;58.30;;;;;;5061151;28;20020;-65
2023/01/16 12:31:38;;;;;;;1.73;1.38;;;16.30;58.30;;;;;;5060521;28;19927;-65
2023/01/16 12:34:32;;;;;;;2.10;1.83;;;16.50;58.10;;;;;;5060522;28;20040;-65
2023/01/16 12:37:25;;;;;;;2.33;1.80;;;16.50;57.80;;;;;;5060682;28;20060;-64
2023/01/16 12:39:53;;;;;;;1.77;1.50;;;16.60;57.60;;;;;;5060703;28;20029;-65
2023/01/16 12:45:30;;;;;;;1.95;1.60;;;16.60;57.40;;;;;;5060490;28;20039;-64
2023/01/16 12:48:21;;;;;;;1.80;1.45;;;16.50;57.50;;;;;;5059803;28;20467;-65
2023/01/16 12:50:52;;;;;;;2.28;1.73;;;16.40;57.60;;;;;;5060337;28;20021;-66
2023/01/16 12:53:36;;;;;;;2.17;1.48;;;16.40;57.70;;;;;;5060319;28;20223;-65
2023/01/16 12:56:34;;;;;;;1.23;1.13;;;16.30;57.90;;;;;;5060315;28;20044;-64
2023/01/16 12:59:14;;;;;;;2.45;1.90;;;16.30;58.00;;;;;;5060389;28;20107;-64
2023/01/16 13:01:44;;;;;;;1.95;1.63;;;16.20;57.90;;;;;;5060362;28;20088;-65
2023/01/16 13:04:19;;;;;;;1.88;1.42;;;16.20;58.00;;;;;;5060551;28;20013;-65
2023/01/16 13:06:57;;;;;;;1.83;1.50;;;16.20;58.10;;;;;;5060244;28;20074;-65
2023/01/16 13:09:46;;;;;;;1.75;1.65;;;16.20;58.10;;;;;;5060223;28;20092;-64
2023/01/16 13:15:27;;;;;;;2.08;1.52;;;16.10;58.20;;;;;;5060063;28;20347;-66
2023/01/16 13:17:57;;;;;;;1.50;1.40;;;16.10;58.30;;;;;;5060096;28;20024;-64
2023/01/16 13:20:25;;;;;;;2.00;1.58;;;16.10;58.30;;;;;;5060272;28;20028;-65
2023/01/16 13:23:39;;;;;;;1.47;1.30;;;16.00;58.30;;;;;;5060345;28;20025;-65
2023/01/16 13:26:10;;;;;;;1.60;1.50;;;16.00;58.30;;;;;;5060182;28;20040;-64
2023/01/16 13:29:01;;;;;;;2.08;1.63;;;16.00;58.30;;;;;;5060157;28;20117;-65
2023/01/16 13:31:40;;;;;;;2.13;1.80;;;16.00;58.30;;;;;;5059796;28;20049;-64
2023/01/16 13:34:30;;;;;;;1.77;1.63;;;16.10;58.40;;;;;;5059945;28;20108;-66
2023/01/16 13:37:17;;;;;;;2.35;1.73;;;16.20;58.20;;;;;;5059917;28;20029;-65
2023/01/16 13:40:02;;;;;;;2.00;1.60;;;16.30;58.10;;;;;;5059980;28;20039;-65
2023/01/16 13:42:29;;;;;;;2.33;1.77;;;16.40;57.90;;;;;;5059899;28;20264;-65
2023/01/16 13:47:51;;;;;;;1.90;1.70;;;16.50;57.50;;;;;;5059830;28;20028;-65
2023/01/16 13:50:27;;;;;;;1.95;1.50;;;16.50;57.30;;;;;;5059827;28;20331;-65
2023/01/16 13:53:00;;;;;;;1.98;1.60;;;16.60;57.40;;;;;;5059832;28;20305;-65
2023/01/16 13:55:40;;;;;;;2.42;2.03;;;16.60;57.20;;;;;;5059642;28;20099;-64
2023/01/16 13:58:09;;;;;;;2.08;1.60;;;16.50;57.20;;;;;;5059688;28;20024;-64
2023/01/16 14:00:37;;;;;;;2.15;1.70;;;16.50;57.20;;;;;;5062194;28;20044;-64
2023/01/16 14:03:21;;;;;;;2.08;1.70;;;16.40;57.40;;;;;;5063532;28;20049;-65
2023/01/16 14:05:50;;;;;;;2.03;1.58;;;16.40;57.40;;;;;;5063561;28;20033;-66
2023/01/16 14:11:23;;;;;;;2.13;1.42;;;16.30;57.70;;;;;;5063436;28;19959;-65
2023/01/16 14:14:09;;;;;;;1.90;1.67;;;16.20;57.70;;;;;;5063481;28;20024;-64
2023/01/16 14:16:38;;;;;;;2.15;1.95;;;16.20;57.80;;;;;;5063251;28;20052;-65
2023/01/16 14:19:13;;;;;;;2.10;1.52;;;16.20;58.00;;;;;;5063436;28;20024;-64
2023/01/16 14:24:28;;;;;;;1.35;1.25;;;16.10;58.00;;;;;;5063274;28;20011;-65
2023/01/16 14:26:59;;;;;;;2.40;1.60;;;16.10;58.10;;;;;;5063168;28;20025;-65
2023/01/16 14:29:49;;;;;;;2.35;1.60;;;16.10;58.10;;;;;;5063274;28;20029;-65